sensor_id;sensor_type;location;lat;lon;timestamp;P1;durP1;ratioP1;P2;durP2;ratioP2
8159;SDS011;27404;52.398;9.646;2024-02-23T00:00:03;5.83;;;0.60;;
8159;SDS011;27404;52.398;9.646;2024-02-23T00:02:31;3.30;;;1.10;;
8159;SDS011;27404;52.398;9.646;2024-02-23T00:04:57;2.20;;;0.70;;
8159;SDS011;27404;52.398;9.646;2024-02-23T00:07:22;3.27;;;0.60;;
8159;SDS011;27404;52.398;9.646;2024-02-23T00:09:48;4.37;;;0.70;;
8159;SDS011;27404;52.398;9.646;2024-02-23T00:12:13;4.27;;;0.80;;
8159;SDS011;27404;52.398;9.646;2024-02-23T00:14:39;3.10;;;0.70;;
8159;SDS011;27404;52.398;9.646;2024-02-23T00:17:04;4.00;;;0.67;;
8159;SDS011;27404;52.398;9.646;2024-02-23T00:19:30;3.00;;;0.43;;
8159;SDS011;27404;52.398;9.646;2024-02-23T00:21:56;2.43;;;0.57;;
8159;SDS011;27404;52.398;9.646;2024-02-23T00:24:24;3.87;;;0.77;;
8159;SDS011;27404;52.398;9.646;2024-02-23T00:26:52;7.43;;;0.90;;
8159;SDS011;27404;52.398;9.646;2024-02-23T00:29:17;2.60;;;0.50;;
8159;SDS011;27404;52.398;9.646;2024-02-23T00:31:43;1.23;;;0.53;;
8159;SDS011;27404;52.398;9.646;2024-02-23T00:34:11;2.93;;;0.80;;
8159;SDS011;27404;52.398;9.646;2024-02-23T00:36:39;2.53;;;0.70;;
8159;SDS011;27404;52.398;9.646;2024-02-23T00:39:08;2.97;;;0.70;;
8159;SDS011;27404;52.398;9.646;2024-02-23T00:41:34;2.20;;;0.70;;
8159;SDS011;27404;52.398;9.646;2024-02-23T00:44:00;1.80;;;0.80;;
8159;SDS011;27404;52.398;9.646;2024-02-23T00:46:25;2.80;;;0.60;;
8159;SDS011;27404;52.398;9.646;2024-02-23T00:48:51;3.30;;;0.80;;
8159;SDS011;27404;52.398;9.646;2024-02-23T00:51:16;5.13;;;0.73;;
8159;SDS011;27404;52.398;9.646;2024-02-23T00:53:42;2.83;;;0.50;;
8159;SDS011;27404;52.398;9.646;2024-02-23T00:56:07;3.83;;;0.77;;
8159;SDS011;27404;52.398;9.646;2024-02-23T00:58:33;1.67;;;0.57;;
8159;SDS011;27404;52.398;9.646;2024-02-23T01:00:59;3.13;;;0.70;;
8159;SDS011;27404;52.398;9.646;2024-02-23T01:03:24;1.73;;;0.57;;
8159;SDS011;27404;52.398;9.646;2024-02-23T01:05:50;2.63;;;0.70;;
8159;SDS011;27404;52.398;9.646;2024-02-23T01:08:15;1.40;;;0.50;;
8159;SDS011;27404;52.398;9.646;2024-02-23T01:10:41;2.20;;;0.63;;
8159;SDS011;27404;52.398;9.646;2024-02-23T01:13:06;2.07;;;0.50;;
8159;SDS011;27404;52.398;9.646;2024-02-23T01:15:32;4.10;;;0.50;;
8159;SDS011;27404;52.398;9.646;2024-02-23T01:17:57;0.50;;;0.40;;
8159;SDS011;27404;52.398;9.646;2024-02-23T01:20:23;1.47;;;0.47;;
8159;SDS011;27404;52.398;9.646;2024-02-23T01:22:48;1.80;;;0.40;;
8159;SDS011;27404;52.398;9.646;2024-02-23T01:25:13;2.10;;;0.50;;
8159;SDS011;27404;52.398;9.646;2024-02-23T01:27:40;1.50;;;0.60;;
8159;SDS011;27404;52.398;9.646;2024-02-23T01:30:06;2.00;;;0.50;;
8159;SDS011;27404;52.398;9.646;2024-02-23T01:32:32;1.17;;;0.50;;
8159;SDS011;27404;52.398;9.646;2024-02-23T01:34:58;0.93;;;0.50;;
8159;SDS011;27404;52.398;9.646;2024-02-23T01:37:23;0.30;;;0.30;;
8159;SDS011;27404;52.398;9.646;2024-02-23T01:39:48;0.47;;;0.47;;
8159;SDS011;27404;52.398;9.646;2024-02-23T01:42:14;2.43;;;0.53;;
8159;SDS011;27404;52.398;9.646;2024-02-23T01:44:39;1.33;;;0.30;;
8159;SDS011;27404;52.398;9.646;2024-02-23T01:47:05;0.10;;;0.10;;
8159;SDS011;27404;52.398;9.646;2024-02-23T01:49:30;0.33;;;0.20;;
8159;SDS011;27404;52.398;9.646;2024-02-23T01:51:58;0.20;;;0.20;;
8159;SDS011;27404;52.398;9.646;2024-02-23T01:54:25;0.40;;;0.20;;
8159;SDS011;27404;52.398;9.646;2024-02-23T01:56:53;1.43;;;0.30;;
8159;SDS011;27404;52.398;9.646;2024-02-23T01:59:19;0.20;;;0.17;;
8159;SDS011;27404;52.398;9.646;2024-02-23T02:01:45;0.63;;;0.20;;
8159;SDS011;27404;52.398;9.646;2024-02-23T02:04:10;0.33;;;0.17;;
8159;SDS011;27404;52.398;9.646;2024-02-23T02:06:36;0.60;;;0.20;;
8159;SDS011;27404;52.398;9.646;2024-02-23T02:09:02;0.20;;;0.20;;
8159;SDS011;27404;52.398;9.646;2024-02-23T02:11:28;0.10;;;0.10;;
8159;SDS011;27404;52.398;9.646;2024-02-23T02:13:53;0.10;;;0.10;;
8159;SDS011;27404;52.398;9.646;2024-02-23T02:16:18;0.20;;;0.10;;
8159;SDS011;27404;52.398;9.646;2024-02-23T02:18:44;0.10;;;0.10;;
8159;SDS011;27404;52.398;9.646;2024-02-23T02:21:11;0.30;;;0.20;;
8159;SDS011;27404;52.398;9.646;2024-02-23T02:23:36;0.83;;;0.30;;
8159;SDS011;27404;52.398;9.646;2024-02-23T02:26:02;0.10;;;0.10;;
8159;SDS011;27404;52.398;9.646;2024-02-23T02:28:28;0.30;;;0.10;;
8159;SDS011;27404;52.398;9.646;2024-02-23T02:30:53;0.10;;;0.10;;
8159;SDS011;27404;52.398;9.646;2024-02-23T02:33:19;0.10;;;0.10;;
8159;SDS011;27404;52.398;9.646;2024-02-23T02:35:45;0.37;;;0.20;;
8159;SDS011;27404;52.398;9.646;2024-02-23T02:38:11;0.00;;;0.00;;
8159;SDS011;27404;52.398;9.646;2024-02-23T02:40:36;0.10;;;0.10;;
8159;SDS011;27404;52.398;9.646;2024-02-23T02:43:02;0.70;;;0.23;;
8159;SDS011;27404;52.398;9.646;2024-02-23T02:45:28;0.20;;;0.20;;
8159;SDS011;27404;52.398;9.646;2024-02-23T02:47:53;0.20;;;0.20;;
8159;SDS011;27404;52.398;9.646;2024-02-23T02:50:19;0.93;;;0.20;;
8159;SDS011;27404;52.398;9.646;2024-02-23T02:52:44;0.23;;;0.20;;
8159;SDS011;27404;52.398;9.646;2024-02-23T02:55:10;0.50;;;0.30;;
8159;SDS011;27404;52.398;9.646;2024-02-23T02:57:35;0.43;;;0.20;;
8159;SDS011;27404;52.398;9.646;2024-02-23T03:00:03;1.13;;;0.30;;
8159;SDS011;27404;52.398;9.646;2024-02-23T03:02:33;0.30;;;0.30;;
8159;SDS011;27404;52.398;9.646;2024-02-23T03:04:58;1.13;;;0.50;;
8159;SDS011;27404;52.398;9.646;2024-02-23T03:07:24;0.70;;;0.40;;
8159;SDS011;27404;52.398;9.646;2024-02-23T03:09:50;0.50;;;0.33;;
8159;SDS011;27404;52.398;9.646;2024-02-23T03:12:16;1.57;;;0.50;;
8159;SDS011;27404;52.398;9.646;2024-02-23T03:14:42;1.43;;;0.40;;
8159;SDS011;27404;52.398;9.646;2024-02-23T03:17:08;0.73;;;0.47;;
8159;SDS011;27404;52.398;9.646;2024-02-23T03:19:37;1.47;;;0.50;;
8159;SDS011;27404;52.398;9.646;2024-02-23T03:22:03;0.93;;;0.60;;
8159;SDS011;27404;52.398;9.646;2024-02-23T03:24:29;2.23;;;0.60;;
8159;SDS011;27404;52.398;9.646;2024-02-23T03:26:54;2.97;;;0.50;;
8159;SDS011;27404;52.398;9.646;2024-02-23T03:29:20;2.87;;;0.50;;
8159;SDS011;27404;52.398;9.646;2024-02-23T03:31:49;1.43;;;0.53;;
8159;SDS011;27404;52.398;9.646;2024-02-23T03:34:15;1.50;;;0.63;;
8159;SDS011;27404;52.398;9.646;2024-02-23T03:36:40;3.23;;;0.77;;
8159;SDS011;27404;52.398;9.646;2024-02-23T03:39:06;3.40;;;0.70;;
8159;SDS011;27404;52.398;9.646;2024-02-23T03:41:31;1.60;;;0.60;;
8159;SDS011;27404;52.398;9.646;2024-02-23T03:43:57;1.37;;;0.60;;
8159;SDS011;27404;52.398;9.646;2024-02-23T03:46:23;2.13;;;0.80;;
8159;SDS011;27404;52.398;9.646;2024-02-23T03:48:49;2.20;;;0.97;;
8159;SDS011;27404;52.398;9.646;2024-02-23T03:51:15;1.70;;;0.90;;
8159;SDS011;27404;52.398;9.646;2024-02-23T03:53:41;0.90;;;0.73;;
8159;SDS011;27404;52.398;9.646;2024-02-23T03:56:06;2.03;;;1.13;;
8159;SDS011;27404;52.398;9.646;2024-02-23T03:58:32;1.50;;;0.93;;
8159;SDS011;27404;52.398;9.646;2024-02-23T04:00:57;1.10;;;0.90;;
8159;SDS011;27404;52.398;9.646;2024-02-23T04:03:23;1.73;;;0.90;;
8159;SDS011;27404;52.398;9.646;2024-02-23T04:05:49;2.53;;;1.10;;
8159;SDS011;27404;52.398;9.646;2024-02-23T04:08:14;3.53;;;1.10;;
8159;SDS011;27404;52.398;9.646;2024-02-23T04:10:39;2.77;;;1.20;;
8159;SDS011;27404;52.398;9.646;2024-02-23T04:13:05;1.63;;;0.93;;
8159;SDS011;27404;52.398;9.646;2024-02-23T04:15:30;1.73;;;1.07;;
8159;SDS011;27404;52.398;9.646;2024-02-23T04:17:56;3.73;;;1.67;;
8159;SDS011;27404;52.398;9.646;2024-02-23T04:20:21;3.30;;;1.30;;
8159;SDS011;27404;52.398;9.646;2024-02-23T04:22:47;4.07;;;1.47;;
8159;SDS011;27404;52.398;9.646;2024-02-23T04:25:12;4.93;;;1.30;;
8159;SDS011;27404;52.398;9.646;2024-02-23T04:27:38;2.17;;;1.10;;
8159;SDS011;27404;52.398;9.646;2024-02-23T04:30:04;4.13;;;1.20;;
8159;SDS011;27404;52.398;9.646;2024-02-23T04:32:30;5.37;;;1.27;;
8159;SDS011;27404;52.398;9.646;2024-02-23T04:34:56;4.60;;;1.20;;
8159;SDS011;27404;52.398;9.646;2024-02-23T04:37:21;2.23;;;1.20;;
8159;SDS011;27404;52.398;9.646;2024-02-23T04:39:47;4.40;;;1.10;;
8159;SDS011;27404;52.398;9.646;2024-02-23T04:42:12;3.23;;;1.03;;
8159;SDS011;27404;52.398;9.646;2024-02-23T04:44:38;4.37;;;1.10;;
8159;SDS011;27404;52.398;9.646;2024-02-23T04:47:03;4.73;;;1.30;;
8159;SDS011;27404;52.398;9.646;2024-02-23T04:49:29;1.77;;;1.10;;
8159;SDS011;27404;52.398;9.646;2024-02-23T04:51:55;1.87;;;0.90;;
8159;SDS011;27404;52.398;9.646;2024-02-23T04:54:20;4.90;;;1.63;;
8159;SDS011;27404;52.398;9.646;2024-02-23T04:56:46;2.77;;;1.17;;
8159;SDS011;27404;52.398;9.646;2024-02-23T04:59:12;5.23;;;1.30;;
8159;SDS011;27404;52.398;9.646;2024-02-23T05:01:38;3.37;;;1.40;;
8159;SDS011;27404;52.398;9.646;2024-02-23T05:04:04;5.87;;;1.40;;
8159;SDS011;27404;52.398;9.646;2024-02-23T05:06:30;4.07;;;1.40;;
8159;SDS011;27404;52.398;9.646;2024-02-23T05:08:55;2.17;;;1.17;;
8159;SDS011;27404;52.398;9.646;2024-02-23T05:11:21;1.93;;;1.03;;
8159;SDS011;27404;52.398;9.646;2024-02-23T05:13:47;6.07;;;1.30;;
8159;SDS011;27404;52.398;9.646;2024-02-23T05:16:16;5.93;;;1.30;;
8159;SDS011;27404;52.398;9.646;2024-02-23T05:18:41;4.07;;;1.10;;
8159;SDS011;27404;52.398;9.646;2024-02-23T05:21:08;3.53;;;1.10;;
8159;SDS011;27404;52.398;9.646;2024-02-23T05:23:34;3.10;;;0.90;;
8159;SDS011;27404;52.398;9.646;2024-02-23T05:26:00;1.20;;;0.80;;
8159;SDS011;27404;52.398;9.646;2024-02-23T05:28:25;2.40;;;0.67;;
8159;SDS011;27404;52.398;9.646;2024-02-23T05:30:51;1.70;;;0.80;;
8159;SDS011;27404;52.398;9.646;2024-02-23T05:33:17;1.87;;;0.80;;
8159;SDS011;27404;52.398;9.646;2024-02-23T05:35:45;2.03;;;0.73;;
8159;SDS011;27404;52.398;9.646;2024-02-23T05:38:13;3.67;;;1.00;;
8159;SDS011;27404;52.398;9.646;2024-02-23T05:40:42;2.57;;;0.77;;
8159;SDS011;27404;52.398;9.646;2024-02-23T05:43:08;2.87;;;0.83;;
8159;SDS011;27404;52.398;9.646;2024-02-23T05:45:33;2.10;;;0.70;;
8159;SDS011;27404;52.398;9.646;2024-02-23T05:47:59;1.50;;;0.60;;
8159;SDS011;27404;52.398;9.646;2024-02-23T05:50:24;2.37;;;0.70;;
8159;SDS011;27404;52.398;9.646;2024-02-23T05:52:50;2.20;;;0.80;;
8159;SDS011;27404;52.398;9.646;2024-02-23T05:55:15;2.87;;;0.80;;
8159;SDS011;27404;52.398;9.646;2024-02-23T05:57:40;2.60;;;0.83;;
8159;SDS011;27404;52.398;9.646;2024-02-23T06:00:06;4.20;;;0.73;;
8159;SDS011;27404;52.398;9.646;2024-02-23T06:02:35;5.47;;;0.83;;
8159;SDS011;27404;52.398;9.646;2024-02-23T06:05:00;1.80;;;0.70;;
8159;SDS011;27404;52.398;9.646;2024-02-23T06:07:26;5.03;;;0.70;;
8159;SDS011;27404;52.398;9.646;2024-02-23T06:09:54;2.53;;;0.80;;
8159;SDS011;27404;52.398;9.646;2024-02-23T06:12:21;5.73;;;1.20;;
8159;SDS011;27404;52.398;9.646;2024-02-23T06:14:47;3.67;;;0.80;;
8159;SDS011;27404;52.398;9.646;2024-02-23T06:17:12;5.63;;;0.93;;
8159;SDS011;27404;52.398;9.646;2024-02-23T06:19:38;3.37;;;1.20;;
8159;SDS011;27404;52.398;9.646;2024-02-23T06:22:03;2.70;;;1.00;;
8159;SDS011;27404;52.398;9.646;2024-02-23T06:24:29;2.63;;;0.77;;
8159;SDS011;27404;52.398;9.646;2024-02-23T06:26:54;3.47;;;0.93;;
8159;SDS011;27404;52.398;9.646;2024-02-23T06:29:19;6.40;;;1.00;;
8159;SDS011;27404;52.398;9.646;2024-02-23T06:31:45;4.67;;;0.83;;
8159;SDS011;27404;52.398;9.646;2024-02-23T06:34:14;1.80;;;0.97;;
8159;SDS011;27404;52.398;9.646;2024-02-23T06:36:40;2.33;;;0.97;;
8159;SDS011;27404;52.398;9.646;2024-02-23T06:39:05;2.63;;;1.13;;
8159;SDS011;27404;52.398;9.646;2024-02-23T06:41:31;3.77;;;1.00;;
8159;SDS011;27404;52.398;9.646;2024-02-23T06:43:56;3.17;;;1.00;;
8159;SDS011;27404;52.398;9.646;2024-02-23T06:46:22;2.67;;;1.07;;
8159;SDS011;27404;52.398;9.646;2024-02-23T06:48:48;4.00;;;1.13;;
8159;SDS011;27404;52.398;9.646;2024-02-23T06:51:13;4.87;;;1.27;;
8159;SDS011;27404;52.398;9.646;2024-02-23T06:53:40;4.87;;;1.30;;
8159;SDS011;27404;52.398;9.646;2024-02-23T06:56:06;2.37;;;1.00;;
8159;SDS011;27404;52.398;9.646;2024-02-23T06:58:31;4.20;;;1.10;;
8159;SDS011;27404;52.398;9.646;2024-02-23T07:00:57;2.83;;;0.83;;
8159;SDS011;27404;52.398;9.646;2024-02-23T07:03:22;4.90;;;1.20;;
8159;SDS011;27404;52.398;9.646;2024-02-23T07:05:48;3.80;;;0.93;;
8159;SDS011;27404;52.398;9.646;2024-02-23T07:08:15;3.90;;;1.87;;
8159;SDS011;27404;52.398;9.646;2024-02-23T07:10:41;6.17;;;1.00;;
8159;SDS011;27404;52.398;9.646;2024-02-23T07:13:06;5.07;;;1.53;;
8159;SDS011;27404;52.398;9.646;2024-02-23T07:15:32;4.40;;;1.17;;
8159;SDS011;27404;52.398;9.646;2024-02-23T07:17:58;3.63;;;1.00;;
8159;SDS011;27404;52.398;9.646;2024-02-23T07:20:24;2.50;;;0.80;;
8159;SDS011;27404;52.398;9.646;2024-02-23T07:22:50;5.43;;;0.80;;
8159;SDS011;27404;52.398;9.646;2024-02-23T07:25:19;3.67;;;1.10;;
8159;SDS011;27404;52.398;9.646;2024-02-23T07:27:45;6.33;;;1.07;;
8159;SDS011;27404;52.398;9.646;2024-02-23T07:30:14;5.47;;;1.10;;
8159;SDS011;27404;52.398;9.646;2024-02-23T07:32:41;2.17;;;0.70;;
8159;SDS011;27404;52.398;9.646;2024-02-23T07:35:06;3.70;;;0.90;;
8159;SDS011;27404;52.398;9.646;2024-02-23T07:37:32;3.17;;;0.90;;
8159;SDS011;27404;52.398;9.646;2024-02-23T07:39:58;2.63;;;1.00;;
8159;SDS011;27404;52.398;9.646;2024-02-23T07:42:23;5.00;;;1.20;;
8159;SDS011;27404;52.398;9.646;2024-02-23T07:44:49;3.43;;;1.00;;
8159;SDS011;27404;52.398;9.646;2024-02-23T07:47:14;5.33;;;1.00;;
8159;SDS011;27404;52.398;9.646;2024-02-23T07:49:39;3.97;;;0.83;;
8159;SDS011;27404;52.398;9.646;2024-02-23T07:52:08;2.90;;;0.63;;
8159;SDS011;27404;52.398;9.646;2024-02-23T07:54:33;1.90;;;1.10;;
8159;SDS011;27404;52.398;9.646;2024-02-23T07:56:59;5.63;;;1.47;;
8159;SDS011;27404;52.398;9.646;2024-02-23T07:59:24;4.60;;;0.90;;
8159;SDS011;27404;52.398;9.646;2024-02-23T08:01:50;2.67;;;0.70;;
8159;SDS011;27404;52.398;9.646;2024-02-23T08:04:15;3.43;;;1.07;;
8159;SDS011;27404;52.398;9.646;2024-02-23T08:06:41;4.23;;;1.00;;
8159;SDS011;27404;52.398;9.646;2024-02-23T08:09:08;3.83;;;0.70;;
8159;SDS011;27404;52.398;9.646;2024-02-23T08:11:34;4.93;;;0.90;;
8159;SDS011;27404;52.398;9.646;2024-02-23T08:14:00;3.23;;;0.77;;
8159;SDS011;27404;52.398;9.646;2024-02-23T08:16:26;5.07;;;0.90;;
8159;SDS011;27404;52.398;9.646;2024-02-23T08:18:51;1.97;;;0.73;;
8159;SDS011;27404;52.398;9.646;2024-02-23T08:21:17;2.10;;;0.83;;
8159;SDS011;27404;52.398;9.646;2024-02-23T08:23:43;3.77;;;1.07;;
8159;SDS011;27404;52.398;9.646;2024-02-23T08:26:09;3.50;;;1.60;;
8159;SDS011;27404;52.398;9.646;2024-02-23T08:28:35;5.50;;;0.80;;
8159;SDS011;27404;52.398;9.646;2024-02-23T08:31:00;6.13;;;0.97;;
8159;SDS011;27404;52.398;9.646;2024-02-23T08:33:26;5.67;;;1.57;;
8159;SDS011;27404;52.398;9.646;2024-02-23T08:35:51;2.20;;;0.80;;
8159;SDS011;27404;52.398;9.646;2024-02-23T08:38:17;3.87;;;0.70;;
8159;SDS011;27404;52.398;9.646;2024-02-23T08:40:43;4.43;;;0.80;;
8159;SDS011;27404;52.398;9.646;2024-02-23T08:43:10;5.83;;;1.53;;
8159;SDS011;27404;52.398;9.646;2024-02-23T08:45:36;4.50;;;0.80;;
8159;SDS011;27404;52.398;9.646;2024-02-23T08:48:01;3.67;;;0.60;;
8159;SDS011;27404;52.398;9.646;2024-02-23T08:50:28;4.67;;;0.70;;
8159;SDS011;27404;52.398;9.646;2024-02-23T08:52:54;3.03;;;0.60;;
8159;SDS011;27404;52.398;9.646;2024-02-23T08:55:20;2.67;;;0.73;;
8159;SDS011;27404;52.398;9.646;2024-02-23T08:57:46;4.30;;;0.80;;
8159;SDS011;27404;52.398;9.646;2024-02-23T09:00:12;3.33;;;0.63;;
8159;SDS011;27404;52.398;9.646;2024-02-23T09:02:39;5.03;;;0.67;;
8159;SDS011;27404;52.398;9.646;2024-02-23T09:05:07;1.53;;;0.50;;
8159;SDS011;27404;52.398;9.646;2024-02-23T09:07:32;5.03;;;0.70;;
8159;SDS011;27404;52.398;9.646;2024-02-23T09:09:58;5.50;;;0.77;;
8159;SDS011;27404;52.398;9.646;2024-02-23T09:12:23;2.90;;;0.60;;
8159;SDS011;27404;52.398;9.646;2024-02-23T09:14:48;3.13;;;0.63;;
8159;SDS011;27404;52.398;9.646;2024-02-23T09:17:14;2.63;;;0.70;;
8159;SDS011;27404;52.398;9.646;2024-02-23T09:19:39;3.70;;;0.70;;
8159;SDS011;27404;52.398;9.646;2024-02-23T09:22:05;5.50;;;0.60;;
8159;SDS011;27404;52.398;9.646;2024-02-23T09:24:30;3.07;;;0.57;;
8159;SDS011;27404;52.398;9.646;2024-02-23T09:26:56;5.50;;;0.80;;
8159;SDS011;27404;52.398;9.646;2024-02-23T09:29:21;2.07;;;0.70;;
8159;SDS011;27404;52.398;9.646;2024-02-23T09:31:47;4.93;;;0.80;;
8159;SDS011;27404;52.398;9.646;2024-02-23T09:34:13;4.80;;;0.97;;
8159;SDS011;27404;52.398;9.646;2024-02-23T09:36:38;4.03;;;0.97;;
8159;SDS011;27404;52.398;9.646;2024-02-23T09:39:04;2.87;;;0.50;;
8159;SDS011;27404;52.398;9.646;2024-02-23T09:41:30;3.57;;;0.80;;
8159;SDS011;27404;52.398;9.646;2024-02-23T09:43:58;3.00;;;1.20;;
8159;SDS011;27404;52.398;9.646;2024-02-23T09:46:24;2.80;;;0.90;;
8159;SDS011;27404;52.398;9.646;2024-02-23T09:48:51;3.50;;;0.80;;
8159;SDS011;27404;52.398;9.646;2024-02-23T09:51:17;5.43;;;0.97;;
8159;SDS011;27404;52.398;9.646;2024-02-23T09:53:43;4.40;;;1.70;;
8159;SDS011;27404;52.398;9.646;2024-02-23T09:56:09;4.53;;;1.30;;
8159;SDS011;27404;52.398;9.646;2024-02-23T09:58:39;4.63;;;1.20;;
8159;SDS011;27404;52.398;9.646;2024-02-23T10:01:06;3.33;;;0.70;;
8159;SDS011;27404;52.398;9.646;2024-02-23T10:03:32;4.20;;;0.90;;
8159;SDS011;27404;52.398;9.646;2024-02-23T10:05:57;0.50;;;0.37;;
8159;SDS011;27404;52.398;9.646;2024-02-23T10:08:24;1.47;;;0.50;;
8159;SDS011;27404;52.398;9.646;2024-02-23T10:10:50;3.13;;;0.33;;
8159;SDS011;27404;52.398;9.646;2024-02-23T10:13:19;2.27;;;0.50;;
8159;SDS011;27404;52.398;9.646;2024-02-23T10:15:46;1.07;;;0.50;;
8159;SDS011;27404;52.398;9.646;2024-02-23T10:18:12;3.20;;;0.70;;
8159;SDS011;27404;52.398;9.646;2024-02-23T10:20:38;1.83;;;0.60;;
8159;SDS011;27404;52.398;9.646;2024-02-23T10:23:04;1.67;;;0.60;;
8159;SDS011;27404;52.398;9.646;2024-02-23T10:25:29;3.10;;;0.50;;
8159;SDS011;27404;52.398;9.646;2024-02-23T10:27:55;1.13;;;0.57;;
8159;SDS011;27404;52.398;9.646;2024-02-23T10:30:20;2.00;;;0.70;;
8159;SDS011;27404;52.398;9.646;2024-02-23T10:32:46;2.23;;;0.60;;
8159;SDS011;27404;52.398;9.646;2024-02-23T10:35:15;1.63;;;0.60;;
8159;SDS011;27404;52.398;9.646;2024-02-23T10:37:44;2.67;;;0.53;;
8159;SDS011;27404;52.398;9.646;2024-02-23T10:40:16;3.87;;;0.50;;
8159;SDS011;27404;52.398;9.646;2024-02-23T10:42:43;2.07;;;0.60;;
8159;SDS011;27404;52.398;9.646;2024-02-23T10:45:21;4.13;;;0.40;;
8159;SDS011;27404;52.398;9.646;2024-02-23T10:47:53;1.53;;;0.60;;
8159;SDS011;27404;52.398;9.646;2024-02-23T10:50:20;2.80;;;0.50;;
8159;SDS011;27404;52.398;9.646;2024-02-23T10:52:47;2.57;;;0.67;;
8159;SDS011;27404;52.398;9.646;2024-02-23T10:55:14;4.63;;;0.80;;
8159;SDS011;27404;52.398;9.646;2024-02-23T10:57:39;1.47;;;0.50;;
8159;SDS011;27404;52.398;9.646;2024-02-23T11:00:05;1.70;;;0.53;;
8159;SDS011;27404;52.398;9.646;2024-02-23T11:02:45;1.93;;;0.50;;
8159;SDS011;27404;52.398;9.646;2024-02-23T11:05:14;2.23;;;0.40;;
8159;SDS011;27404;52.398;9.646;2024-02-23T11:07:41;6.53;;;0.80;;
8159;SDS011;27404;52.398;9.646;2024-02-23T11:10:06;2.70;;;0.87;;
8159;SDS011;27404;52.398;9.646;2024-02-23T11:12:34;5.00;;;0.80;;
8159;SDS011;27404;52.398;9.646;2024-02-23T11:15:00;2.70;;;0.70;;
8159;SDS011;27404;52.398;9.646;2024-02-23T11:17:27;2.87;;;0.70;;
8159;SDS011;27404;52.398;9.646;2024-02-23T11:19:55;2.17;;;0.80;;
8159;SDS011;27404;52.398;9.646;2024-02-23T11:22:25;3.13;;;0.70;;
8159;SDS011;27404;52.398;9.646;2024-02-23T11:24:51;3.67;;;1.23;;
8159;SDS011;27404;52.398;9.646;2024-02-23T11:27:16;0.90;;;0.43;;
8159;SDS011;27404;52.398;9.646;2024-02-23T11:29:45;7.17;;;0.77;;
8159;SDS011;27404;52.398;9.646;2024-02-23T11:32:15;2.53;;;0.60;;
8159;SDS011;27404;52.398;9.646;2024-02-23T11:34:53;7.60;;;1.00;;
8159;SDS011;27404;52.398;9.646;2024-02-23T11:37:20;3.87;;;0.60;;
8159;SDS011;27404;52.398;9.646;2024-02-23T11:39:46;3.20;;;0.90;;
8159;SDS011;27404;52.398;9.646;2024-02-23T11:42:11;2.27;;;0.67;;
8159;SDS011;27404;52.398;9.646;2024-02-23T11:44:37;1.83;;;0.50;;
8159;SDS011;27404;52.398;9.646;2024-02-23T11:47:02;4.83;;;0.70;;
8159;SDS011;27404;52.398;9.646;2024-02-23T11:49:28;2.20;;;0.53;;
8159;SDS011;27404;52.398;9.646;2024-02-23T11:51:54;3.97;;;0.60;;
8159;SDS011;27404;52.398;9.646;2024-02-23T11:54:20;3.77;;;0.80;;
8159;SDS011;27404;52.398;9.646;2024-02-23T11:56:47;2.30;;;0.67;;
8159;SDS011;27404;52.398;9.646;2024-02-23T11:59:14;3.63;;;0.63;;
8159;SDS011;27404;52.398;9.646;2024-02-23T12:01:50;1.67;;;0.60;;
8159;SDS011;27404;52.398;9.646;2024-02-23T12:04:15;2.13;;;1.00;;
8159;SDS011;27404;52.398;9.646;2024-02-23T12:06:41;5.20;;;0.80;;
8159;SDS011;27404;52.398;9.646;2024-02-23T12:09:07;3.40;;;0.60;;
8159;SDS011;27404;52.398;9.646;2024-02-23T12:11:33;2.10;;;0.60;;
8159;SDS011;27404;52.398;9.646;2024-02-23T12:13:59;4.57;;;0.70;;
8159;SDS011;27404;52.398;9.646;2024-02-23T12:16:27;2.10;;;0.60;;
8159;SDS011;27404;52.398;9.646;2024-02-23T12:18:56;2.50;;;0.70;;
8159;SDS011;27404;52.398;9.646;2024-02-23T12:21:22;2.87;;;0.70;;
8159;SDS011;27404;52.398;9.646;2024-02-23T12:23:49;1.63;;;0.50;;
8159;SDS011;27404;52.398;9.646;2024-02-23T12:26:16;3.13;;;0.90;;
8159;SDS011;27404;52.398;9.646;2024-02-23T12:28:43;2.43;;;0.67;;
8159;SDS011;27404;52.398;9.646;2024-02-23T12:31:09;3.40;;;0.77;;
8159;SDS011;27404;52.398;9.646;2024-02-23T12:33:35;3.33;;;0.80;;
8159;SDS011;27404;52.398;9.646;2024-02-23T12:36:05;2.40;;;0.93;;
8159;SDS011;27404;52.398;9.646;2024-02-23T12:38:31;3.37;;;0.77;;
8159;SDS011;27404;52.398;9.646;2024-02-23T12:40:57;2.60;;;0.47;;
8159;SDS011;27404;52.398;9.646;2024-02-23T12:43:23;3.43;;;0.70;;
8159;SDS011;27404;52.398;9.646;2024-02-23T12:45:52;4.10;;;1.00;;
8159;SDS011;27404;52.398;9.646;2024-02-23T12:48:19;3.23;;;0.80;;
8159;SDS011;27404;52.398;9.646;2024-02-23T12:50:46;2.83;;;0.70;;
8159;SDS011;27404;52.398;9.646;2024-02-23T12:56:08;4.93;;;0.60;;
8159;SDS011;27404;52.398;9.646;2024-02-23T12:58:38;3.80;;;0.70;;
8159;SDS011;27404;52.398;9.646;2024-02-23T13:01:04;2.37;;;0.70;;
8159;SDS011;27404;52.398;9.646;2024-02-23T13:03:31;4.87;;;1.00;;
8159;SDS011;27404;52.398;9.646;2024-02-23T13:05:57;2.70;;;1.30;;
8159;SDS011;27404;52.398;9.646;2024-02-23T13:08:23;3.67;;;1.37;;
8159;SDS011;27404;52.398;9.646;2024-02-23T13:10:50;2.47;;;0.60;;
8159;SDS011;27404;52.398;9.646;2024-02-23T13:13:16;2.40;;;0.67;;
8159;SDS011;27404;52.398;9.646;2024-02-23T13:15:42;3.73;;;2.17;;
8159;SDS011;27404;52.398;9.646;2024-02-23T13:18:08;3.40;;;0.63;;
8159;SDS011;27404;52.398;9.646;2024-02-23T13:20:34;1.77;;;0.50;;
8159;SDS011;27404;52.398;9.646;2024-02-23T13:23:00;1.53;;;0.40;;
8159;SDS011;27404;52.398;9.646;2024-02-23T13:25:27;3.20;;;0.70;;
8159;SDS011;27404;52.398;9.646;2024-02-23T13:27:52;4.07;;;0.53;;
8159;SDS011;27404;52.398;9.646;2024-02-23T13:30:18;2.83;;;0.80;;
8159;SDS011;27404;52.398;9.646;2024-02-23T13:32:43;2.00;;;0.70;;
8159;SDS011;27404;52.398;9.646;2024-02-23T13:35:09;2.83;;;0.70;;
8159;SDS011;27404;52.398;9.646;2024-02-23T13:37:34;2.83;;;0.73;;
8159;SDS011;27404;52.398;9.646;2024-02-23T13:40:00;1.60;;;0.60;;
8159;SDS011;27404;52.398;9.646;2024-02-23T13:42:26;1.77;;;0.70;;
8159;SDS011;27404;52.398;9.646;2024-02-23T13:44:51;2.63;;;0.73;;
8159;SDS011;27404;52.398;9.646;2024-02-23T13:47:16;4.37;;;0.83;;
8159;SDS011;27404;52.398;9.646;2024-02-23T13:49:42;3.10;;;0.70;;
8159;SDS011;27404;52.398;9.646;2024-02-23T13:52:07;4.40;;;0.70;;
8159;SDS011;27404;52.398;9.646;2024-02-23T13:54:33;2.63;;;0.50;;
8159;SDS011;27404;52.398;9.646;2024-02-23T13:56:58;2.37;;;0.50;;
8159;SDS011;27404;52.398;9.646;2024-02-23T13:59:24;3.13;;;0.60;;
8159;SDS011;27404;52.398;9.646;2024-02-23T14:01:49;2.97;;;0.60;;
8159;SDS011;27404;52.398;9.646;2024-02-23T14:04:15;2.20;;;0.80;;
8159;SDS011;27404;52.398;9.646;2024-02-23T14:06:41;1.23;;;0.70;;
8159;SDS011;27404;52.398;9.646;2024-02-23T14:09:08;1.37;;;0.70;;
8159;SDS011;27404;52.398;9.646;2024-02-23T14:11:34;2.90;;;0.70;;
8159;SDS011;27404;52.398;9.646;2024-02-23T14:14:00;3.07;;;0.80;;
8159;SDS011;27404;52.398;9.646;2024-02-23T14:16:25;2.23;;;0.70;;
8159;SDS011;27404;52.398;9.646;2024-02-23T14:18:51;6.03;;;1.00;;
8159;SDS011;27404;52.398;9.646;2024-02-23T14:21:16;2.17;;;0.67;;
8159;SDS011;27404;52.398;9.646;2024-02-23T14:23:43;2.70;;;0.60;;
8159;SDS011;27404;52.398;9.646;2024-02-23T14:26:09;4.37;;;0.80;;
8159;SDS011;27404;52.398;9.646;2024-02-23T14:28:35;3.93;;;1.57;;
8159;SDS011;27404;52.398;9.646;2024-02-23T14:31:00;4.50;;;0.80;;
8159;SDS011;27404;52.398;9.646;2024-02-23T14:33:26;2.03;;;1.20;;
8159;SDS011;27404;52.398;9.646;2024-02-23T14:35:51;3.07;;;0.70;;
8159;SDS011;27404;52.398;9.646;2024-02-23T14:38:20;2.30;;;0.90;;
8159;SDS011;27404;52.398;9.646;2024-02-23T14:40:47;3.73;;;1.20;;
8159;SDS011;27404;52.398;9.646;2024-02-23T14:43:12;1.33;;;0.57;;
8159;SDS011;27404;52.398;9.646;2024-02-23T14:45:38;1.93;;;0.50;;
8159;SDS011;27404;52.398;9.646;2024-02-23T14:48:03;3.33;;;0.80;;
8159;SDS011;27404;52.398;9.646;2024-02-23T14:50:29;3.80;;;0.73;;
8159;SDS011;27404;52.398;9.646;2024-02-23T14:52:54;1.43;;;0.60;;
8159;SDS011;27404;52.398;9.646;2024-02-23T14:55:20;3.73;;;1.03;;